sensor_id;sensor_type;location;lat;lon;timestamp;pressure;altitude;pressure_sealevel;temperature;humidity
30598;BME280;17365;48.878;8.334;2023-10-31T00:01:33;98616.84;;;12.21;100.00
30598;BME280;17365;48.878;8.334;2023-10-31T00:03:59;98617.03;;;12.15;100.00
30598;BME280;17365;48.878;8.334;2023-10-31T00:06:24;98625.50;;;12.23;100.00
30598;BME280;17365;48.878;8.334;2023-10-31T00:08:49;98632.44;;;12.21;100.00
30598;BME280;17365;48.878;8.334;2023-10-31T00:11:14;98636.19;;;12.13;100.00
30598;BME280;17365;48.878;8.334;2023-10-31T00:13:39;98644.16;;;12.07;100.00
30598;BME280;17365;48.878;8.334;2023-10-31T00:16:04;98643.94;;;12.14;100.00
30598;BME280;17365;48.878;8.334;2023-10-31T00:18:30;98634.19;;;12.21;100.00
30598;BME280;17365;48.878;8.334;2023-10-31T00:20:55;98633.75;;;12.07;100.00
30598;BME280;17365;48.878;8.334;2023-10-31T00:23:21;98632.75;;;12.12;100.00
30598;BME280;17365;48.878;8.334;2023-10-31T00:25:47;98647.66;;;12.06;100.00
30598;BME280;17365;48.878;8.334;2023-10-31T00:28:12;98646.59;;;12.11;100.00
30598;BME280;17365;48.878;8.334;2023-10-31T00:30:37;98642.59;;;12.01;100.00
30598;BME280;17365;48.878;8.334;2023-10-31T00:33:02;98636.50;;;12.02;100.00
30598;BME280;17365;48.878;8.334;2023-10-31T00:35:27;98635.69;;;11.99;100.00
30598;BME280;17365;48.878;8.334;2023-10-31T00:37:53;98624.16;;;12.09;100.00
30598;BME280;17365;48.878;8.334;2023-10-31T00:40:18;98631.00;;;12.13;100.00
30598;BME280;17365;48.878;8.334;2023-10-31T00:42:43;98624.00;;;12.15;100.00
30598;BME280;17365;48.878;8.334;2023-10-31T00:45:08;98621.50;;;12.10;100.00
30598;BME280;17365;48.878;8.334;2023-10-31T00:47:34;98624.75;;;12.18;100.00
30598;BME280;17365;48.878;8.334;2023-10-31T00:49:59;98627.16;;;11.95;100.00
30598;BME280;17365;48.878;8.334;2023-10-31T00:52:24;98629.25;;;12.13;100.00
30598;BME280;17365;48.878;8.334;2023-10-31T00:54:50;98625.50;;;12.23;100.00
30598;BME280;17365;48.878;8.334;2023-10-31T00:57:15;98620.94;;;12.01;100.00
30598;BME280;17365;48.878;8.334;2023-10-31T00:59:40;98630.31;;;12.06;100.00
30598;BME280;17365;48.878;8.334;2023-10-31T01:02:05;98626.09;;;12.02;100.00
30598;BME280;17365;48.878;8.334;2023-10-31T01:04:31;98625.00;;;12.09;100.00
30598;BME280;17365;48.878;8.334;2023-10-31T01:06:56;98630.88;;;11.85;100.00
30598;BME280;17365;48.878;8.334;2023-10-31T01:09:21;98630.50;;;11.99;100.00
30598;BME280;17365;48.878;8.334;2023-10-31T01:11:46;98627.91;;;11.99;100.00
30598;BME280;17365;48.878;8.334;2023-10-31T01:14:12;98634.41;;;12.15;100.00
30598;BME280;17365;48.878;8.334;2023-10-31T01:16:37;98638.59;;;12.19;100.00
30598;BME280;17365;48.878;8.334;2023-10-31T01:19:02;98647.75;;;12.03;100.00
30598;BME280;17365;48.878;8.334;2023-10-31T01:21:28;98638.25;;;12.00;100.00
30598;BME280;17365;48.878;8.334;2023-10-31T01:23:53;98634.44;;;12.13;100.00
30598;BME280;17365;48.878;8.334;2023-10-31T01:26:18;98628.09;;;11.92;100.00
30598;BME280;17365;48.878;8.334;2023-10-31T01:28:44;98626.72;;;11.79;100.00
30598;BME280;17365;48.878;8.334;2023-10-31T01:31:09;98625.28;;;11.68;100.00
30598;BME280;17365;48.878;8.334;2023-10-31T01:33:34;98628.03;;;11.61;100.00
30598;BME280;17365;48.878;8.334;2023-10-31T01:36:00;98628.88;;;11.62;100.00
30598;BME280;17365;48.878;8.334;2023-10-31T01:38:25;98633.16;;;11.63;100.00
30598;BME280;17365;48.878;8.334;2023-10-31T01:40:50;98640.00;;;11.67;100.00
30598;BME280;17365;48.878;8.334;2023-10-31T01:43:30;98649.75;;;11.59;100.00
30598;BME280;17365;48.878;8.334;2023-10-31T01:45:56;98656.09;;;11.47;100.00
30598;BME280;17365;48.878;8.334;2023-10-31T01:48:21;98657.16;;;11.38;100.00
30598;BME280;17365;48.878;8.334;2023-10-31T01:50:48;98671.44;;;11.22;100.00
30598;BME280;17365;48.878;8.334;2023-10-31T01:53:13;98676.63;;;11.21;100.00
30598;BME280;17365;48.878;8.334;2023-10-31T01:55:39;98680.25;;;11.15;100.00
30598;BME280;17365;48.878;8.334;2023-10-31T01:58:04;98683.84;;;11.08;100.00
30598;BME280;17365;48.878;8.334;2023-10-31T02:00:30;98689.16;;;11.03;100.00
30598;BME280;17365;48.878;8.334;2023-10-31T02:02:55;98693.66;;;10.95;100.00
30598;BME280;17365;48.878;8.334;2023-10-31T02:05:21;98696.22;;;10.97;100.00
30598;BME280;17365;48.878;8.334;2023-10-31T02:07:47;98696.00;;;11.06;100.00
30598;BME280;17365;48.878;8.334;2023-10-31T02:10:12;98696.91;;;11.05;100.00
30598;BME280;17365;48.878;8.334;2023-10-31T02:12:37;98691.59;;;11.11;100.00
30598;BME280;17365;48.878;8.334;2023-10-31T02:15:03;98678.41;;;11.19;100.00
30598;BME280;17365;48.878;8.334;2023-10-31T02:17:28;98680.03;;;11.24;100.00
30598;BME280;17365;48.878;8.334;2023-10-31T02:19:54;98683.25;;;11.32;100.00
30598;BME280;17365;48.878;8.334;2023-10-31T02:22:19;98694.75;;;11.24;100.00
30598;BME280;17365;48.878;8.334;2023-10-31T02:24:44;98706.75;;;11.28;100.00
30598;BME280;17365;48.878;8.334;2023-10-31T02:27:09;98710.25;;;11.27;100.00
30598;BME280;17365;48.878;8.334;2023-10-31T02:29:34;98718.16;;;11.21;100.00
30598;BME280;17365;48.878;8.334;2023-10-31T02:32:00;98716.25;;;11.29;100.00
30598;BME280;17365;48.878;8.334;2023-10-31T02:34:25;98722.16;;;11.35;100.00
30598;BME280;17365;48.878;8.334;2023-10-31T02:36:51;98721.97;;;11.43;100.00
30598;BME280;17365;48.878;8.334;2023-10-31T02:39:16;98718.66;;;11.36;100.00
30598;BME280;17365;48.878;8.334;2023-10-31T02:41:41;98727.53;;;11.28;100.00
30598;BME280;17365;48.878;8.334;2023-10-31T02:44:06;98723.09;;;11.31;100.00
30598;BME280;17365;48.878;8.334;2023-10-31T02:46:32;98725.78;;;11.28;100.00
30598;BME280;17365;48.878;8.334;2023-10-31T02:48:57;98728.34;;;11.30;100.00
30598;BME280;17365;48.878;8.334;2023-10-31T02:51:22;98720.19;;;11.45;100.00
30598;BME280;17365;48.878;8.334;2023-10-31T02:53:47;98730.63;;;11.42;100.00
30598;BME280;17365;48.878;8.334;2023-10-31T02:56:12;98733.28;;;11.41;100.00
30598;BME280;17365;48.878;8.334;2023-10-31T02:58:37;98730.28;;;11.57;100.00
30598;BME280;17365;48.878;8.334;2023-10-31T03:01:03;98735.09;;;11.37;100.00
30598;BME280;17365;48.878;8.334;2023-10-31T03:03:28;98742.88;;;11.37;100.00
30598;BME280;17365;48.878;8.334;2023-10-31T03:05:53;98742.81;;;11.40;100.00
30598;BME280;17365;48.878;8.334;2023-10-31T03:08:18;98742.13;;;11.32;100.00
30598;BME280;17365;48.878;8.334;2023-10-31T03:10:49;98743.75;;;11.37;100.00
30598;BME280;17365;48.878;8.334;2023-10-31T03:13:17;98739.91;;;11.52;100.00
30598;BME280;17365;48.878;8.334;2023-10-31T03:15:43;98750.47;;;11.46;100.00
30598;BME280;17365;48.878;8.334;2023-10-31T03:18:08;98743.50;;;11.48;100.00
30598;BME280;17365;48.878;8.334;2023-10-31T03:20:33;98754.53;;;11.58;100.00
30598;BME280;17365;48.878;8.334;2023-10-31T03:22:58;98750.25;;;11.55;100.00
30598;BME280;17365;48.878;8.334;2023-10-31T03:25:24;98749.31;;;11.58;100.00
30598;BME280;17365;48.878;8.334;2023-10-31T03:27:49;98752.66;;;11.63;100.00
30598;BME280;17365;48.878;8.334;2023-10-31T03:30:14;98767.69;;;11.50;100.00
30598;BME280;17365;48.878;8.334;2023-10-31T03:32:39;98753.16;;;11.42;100.00
30598;BME280;17365;48.878;8.334;2023-10-31T03:35:04;98763.25;;;11.54;100.00
30598;BME280;17365;48.878;8.334;2023-10-31T03:37:30;98758.78;;;11.60;100.00
30598;BME280;17365;48.878;8.334;2023-10-31T03:39:55;98771.00;;;11.57;100.00
30598;BME280;17365;48.878;8.334;2023-10-31T03:42:20;98766.91;;;11.47;100.00
30598;BME280;17365;48.878;8.334;2023-10-31T03:44:45;98772.75;;;11.56;100.00
30598;BME280;17365;48.878;8.334;2023-10-31T03:47:10;98778.81;;;11.55;100.00
30598;BME280;17365;48.878;8.334;2023-10-31T03:49:39;98782.41;;;11.50;100.00
30598;BME280;17365;48.878;8.334;2023-10-31T03:52:04;98783.91;;;11.60;100.00
30598;BME280;17365;48.878;8.334;2023-10-31T03:54:29;98791.56;;;11.64;100.00
30598;BME280;17365;48.878;8.334;2023-10-31T03:56:55;98794.28;;;11.60;100.00
30598;BME280;17365;48.878;8.334;2023-10-31T03:59:20;98790.91;;;11.56;100.00
30598;BME280;17365;48.878;8.334;2023-10-31T04:01:45;98796.25;;;11.50;100.00
30598;BME280;17365;48.878;8.334;2023-10-31T04:04:10;98792.88;;;11.47;100.00
30598;BME280;17365;48.878;8.334;2023-10-31T04:06:36;98800.78;;;11.41;100.00
30598;BME280;17365;48.878;8.334;2023-10-31T04:09:04;98792.88;;;11.47;100.00
30598;BME280;17365;48.878;8.334;2023-10-31T04:11:29;98787.22;;;11.28;100.00
30598;BME280;17365;48.878;8.334;2023-10-31T04:13:55;98795.75;;;11.34;100.00
30598;BME280;17365;48.878;8.334;2023-10-31T04:16:20;98800.72;;;11.44;100.00
30598;BME280;17365;48.878;8.334;2023-10-31T04:18:45;98792.91;;;11.45;100.00
30598;BME280;17365;48.878;8.334;2023-10-31T04:21:10;98796.28;;;11.49;100.00
30598;BME280;17365;48.878;8.334;2023-10-31T04:23:35;98793.56;;;11.53;100.00
30598;BME280;17365;48.878;8.334;2023-10-31T04:26:00;98793.84;;;11.41;100.00
30598;BME280;17365;48.878;8.334;2023-10-31T04:28:26;98796.00;;;11.24;100.00
30598;BME280;17365;48.878;8.334;2023-10-31T04:30:51;98797.91;;;11.14;100.00
30598;BME280;17365;48.878;8.334;2023-10-31T04:33:16;98799.69;;;11.12;100.00
30598;BME280;17365;48.878;8.334;2023-10-31T04:35:41;98789.22;;;11.17;100.00
30598;BME280;17365;48.878;8.334;2023-10-31T04:38:07;98790.25;;;11.08;100.00
30598;BME280;17365;48.878;8.334;2023-10-31T04:40:33;98780.53;;;11.18;100.00
30598;BME280;17365;48.878;8.334;2023-10-31T04:42:59;98784.78;;;11.22;100.00
30598;BME280;17365;48.878;8.334;2023-10-31T04:45:24;98775.31;;;11.19;100.00
30598;BME280;17365;48.878;8.334;2023-10-31T04:47:49;98766.75;;;11.16;100.00
30598;BME280;17365;48.878;8.334;2023-10-31T04:50:14;98780.69;;;11.12;100.00
30598;BME280;17365;48.878;8.334;2023-10-31T04:52:40;98784.13;;;11.12;100.00
30598;BME280;17365;48.878;8.334;2023-10-31T04:55:05;98785.75;;;11.16;100.00
30598;BME280;17365;48.878;8.334;2023-10-31T04:57:30;98791.72;;;11.21;100.00
30598;BME280;17365;48.878;8.334;2023-10-31T04:59:56;98790.84;;;11.22;100.00
30598;BME280;17365;48.878;8.334;2023-10-31T05:02:22;98792.69;;;11.16;100.00
30598;BME280;17365;48.878;8.334;2023-10-31T05:04:48;98789.13;;;11.21;100.00
30598;BME280;17365;48.878;8.334;2023-10-31T05:07:15;98782.19;;;11.20;100.00
30598;BME280;17365;48.878;8.334;2023-10-31T05:09:40;98776.94;;;11.25;100.00
30598;BME280;17365;48.878;8.334;2023-10-31T05:12:06;98782.19;;;11.20;100.00
30598;BME280;17365;48.878;8.334;2023-10-31T05:14:31;98786.56;;;11.18;100.00
30598;BME280;17365;48.878;8.334;2023-10-31T05:16:56;98786.03;;;11.04;100.00
30598;BME280;17365;48.878;8.334;2023-10-31T05:19:22;98784.91;;;11.16;100.00
30598;BME280;17365;48.878;8.334;2023-10-31T05:21:47;98790.38;;;11.03;100.00
30598;BME280;17365;48.878;8.334;2023-10-31T05:24:12;98791.09;;;11.08;100.00
30598;BME280;17365;48.878;8.334;2023-10-31T05:26:39;98791.88;;;11.14;100.00
30598;BME280;17365;48.878;8.334;2023-10-31T05:29:04;98802.03;;;11.24;100.00
30598;BME280;17365;48.878;8.334;2023-10-31T05:31:29;98811.91;;;11.07;100.00
30598;BME280;17365;48.878;8.334;2023-10-31T05:33:54;98805.47;;;11.25;100.00
30598;BME280;17365;48.878;8.334;2023-10-31T05:36:24;98826.47;;;11.14;100.00
30598;BME280;17365;48.878;8.334;2023-10-31T05:38:50;98821.97;;;11.21;100.00
30598;BME280;17365;48.878;8.334;2023-10-31T05:41:15;98840.13;;;11.24;100.00
30598;BME280;17365;48.878;8.334;2023-10-31T05:43:40;98852.97;;;11.28;100.00
30598;BME280;17365;48.878;8.334;2023-10-31T05:46:06;98852.94;;;11.30;100.00
30598;BME280;17365;48.878;8.334;2023-10-31T05:48:31;98843.69;;;11.18;100.00
30598;BME280;17365;48.878;8.334;2023-10-31T05:50:56;98842.88;;;11.16;100.00
30598;BME280;17365;48.878;8.334;2023-10-31T05:53:22;98841.22;;;11.12;100.00
30598;BME280;17365;48.878;8.334;2023-10-31T05:55:47;98844.72;;;11.09;100.00
30598;BME280;17365;48.878;8.334;2023-10-31T05:58:12;98844.41;;;11.25;100.00
30598;BME280;17365;48.878;8.334;2023-10-31T06:00:37;98852.97;;;11.28;100.00
30598;BME280;17365;48.878;8.334;2023-10-31T06:03:02;98849.59;;;11.25;100.00
30598;BME280;17365;48.878;8.334;2023-10-31T06:05:28;98866.28;;;11.13;100.00
30598;BME280;17365;48.878;8.334;2023-10-31T06:07:53;98855.94;;;11.12;100.00
30598;BME280;17365;48.878;8.334;2023-10-31T06:10:18;98862.09;;;11.06;100.00
30598;BME280;17365;48.878;8.334;2023-10-31T06:12:43;98863.97;;;10.99;100.00
30598;BME280;17365;48.878;8.334;2023-10-31T06:15:08;98869.19;;;10.98;100.00
30598;BME280;17365;48.878;8.334;2023-10-31T06:17:34;98868.31;;;10.99;100.00
30598;BME280;17365;48.878;8.334;2023-10-31T06:19:59;98868.09;;;11.08;100.00
30598;BME280;17365;48.878;8.334;2023-10-31T06:22:24;98875.09;;;11.04;100.00
30598;BME280;17365;48.878;8.334;2023-10-31T06:24:49;98883.84;;;11.00;100.00
30598;BME280;17365;48.878;8.334;2023-10-31T06:27:15;98888.94;;;11.05;100.00
30598;BME280;17365;48.878;8.334;2023-10-31T06:29:40;98887.19;;;11.05;100.00
30598;BME280;17365;48.878;8.334;2023-10-31T06:32:05;98899.50;;;10.96;100.00
30598;BME280;17365;48.878;8.334;2023-10-31T06:34:30;98901.09;;;11.03;100.00
30598;BME280;17365;48.878;8.334;2023-10-31T06:36:55;98892.31;;;11.08;100.00
30598;BME280;17365;48.878;8.334;2023-10-31T06:39:21;98898.16;;;11.20;100.00
30598;BME280;17365;48.878;8.334;2023-10-31T06:41:47;98902.56;;;11.16;100.00
30598;BME280;17365;48.878;8.334;2023-10-31T06:44:12;98901.78;;;11.13;100.00
30598;BME280;17365;48.878;8.334;2023-10-31T06:46:37;98900.84;;;11.15;100.00
30598;BME280;17365;48.878;8.334;2023-10-31T06:49:03;98894.03;;;11.09;100.00
30598;BME280;17365;48.878;8.334;2023-10-31T06:51:28;98906.00;;;11.17;100.00
30598;BME280;17365;48.878;8.334;2023-10-31T06:53:53;98906.25;;;11.04;100.00
30598;BME280;17365;48.878;8.334;2023-10-31T06:56:18;98908.97;;;10.97;100.00
30598;BME280;17365;48.878;8.334;2023-10-31T06:58:44;98907.31;;;10.94;100.00
30598;BME280;17365;48.878;8.334;2023-10-31T07:01:09;98916.84;;;10.94;100.00
30598;BME280;17365;48.878;8.334;2023-10-31T07:03:34;98918.53;;;10.95;100.00
30598;BME280;17365;48.878;8.334;2023-10-31T07:06:00;98918.19;;;11.13;100.00
30598;BME280;17365;48.878;8.334;2023-10-31T07:08:25;98927.75;;;11.11;100.00
30598;BME280;17365;48.878;8.334;2023-10-31T07:10:50;98922.69;;;11.05;100.00
30598;BME280;17365;48.878;8.334;2023-10-31T07:13:15;98928.50;;;11.16;100.00
30598;BME280;17365;48.878;8.334;2023-10-31T07:15:41;98935.38;;;11.19;100.00
30598;BME280;17365;48.878;8.334;2023-10-31T07:18:06;98926.78;;;11.17;100.00
30598;BME280;17365;48.878;8.334;2023-10-31T07:20:34;98927.31;;;11.34;100.00
30598;BME280;17365;48.878;8.334;2023-10-31T07:23:00;98941.22;;;11.30;100.00
30598;BME280;17365;48.878;8.334;2023-10-31T07:25:25;98941.09;;;11.36;100.00
30598;BME280;17365;48.878;8.334;2023-10-31T07:27:50;98942.66;;;11.45;100.00
30598;BME280;17365;48.878;8.334;2023-10-31T07:30:15;98935.28;;;11.66;100.00
30598;BME280;17365;48.878;8.334;2023-10-31T07:32:40;98946.09;;;11.47;100.00
30598;BME280;17365;48.878;8.334;2023-10-31T07:35:06;98951.13;;;11.53;100.00
30598;BME280;17365;48.878;8.334;2023-10-31T07:37:31;98943.19;;;11.60;100.00
30598;BME280;17365;48.878;8.334;2023-10-31T07:39:56;98958.94;;;11.53;100.00
30598;BME280;17365;48.878;8.334;2023-10-31T07:42:21;98949.34;;;11.55;100.00
30598;BME280;17365;48.878;8.334;2023-10-31T07:44:46;98959.63;;;11.61;100.00
30598;BME280;17365;48.878;8.334;2023-10-31T07:47:12;98969.91;;;11.67;100.00
30598;BME280;17365;48.878;8.334;2023-10-31T07:49:37;98958.22;;;11.88;100.00
30598;BME280;17365;48.878;8.334;2023-10-31T07:52:02;98962.50;;;11.89;100.00
30598;BME280;17365;48.878;8.334;2023-10-31T07:54:27;98972.88;;;11.92;100.00
30598;BME280;17365;48.878;8.334;2023-10-31T07:56:53;98965.78;;;11.99;100.00
30598;BME280;17365;48.878;8.334;2023-10-31T07:59:18;98959.44;;;12.10;100.00
30598;BME280;17365;48.878;8.334;2023-10-31T08:01:43;98960.47;;;12.03;100.00
30598;BME280;17365;48.878;8.334;2023-10-31T08:04:08;98966.66;;;11.98;100.00
30598;BME280;17365;48.878;8.334;2023-10-31T08:06:34;98976.84;;;12.07;100.00
30598;BME280;17365;48.878;8.334;2023-10-31T08:09:00;98975.31;;;11.98;100.00
30598;BME280;17365;48.878;8.334;2023-10-31T08:11:25;98982.94;;;12.06;100.00
30598;BME280;17365;48.878;8.334;2023-10-31T08:13:52;98993.28;;;12.09;100.00
30598;BME280;17365;48.878;8.334;2023-10-31T08:16:17;99004.25;;;12.21;100.00
30598;BME280;17365;48.878;8.334;2023-10-31T08:18:44;98998.88;;;11.90;100.00
30598;BME280;17365;48.878;8.334;2023-10-31T08:21:09;98996.41;;;12.23;100.00
30598;BME280;17365;48.878;8.334;2023-10-31T08:23:36;99012.16;;;12.17;100.00
30598;BME280;17365;48.878;8.334;2023-10-31T08:26:01;99011.81;;;12.32;100.00
30598;BME280;17365;48.878;8.334;2023-10-31T08:28:26;99008.31;;;12.33;100.00
30598;BME280;17365;48.878;8.334;2023-10-31T08:30:52;99014.91;;;12.48;100.00
30598;BME280;17365;48.878;8.334;2023-10-31T08:33:17;99009.00;;;12.41;100.00
30598;BME280;17365;48.878;8.334;2023-10-31T08:35:42;99017.16;;;12.26;100.00
30598;BME280;17365;48.878;8.334;2023-10-31T08:38:08;99015.88;;;12.44;100.00
30598;BME280;17365;48.878;8.334;2023-10-31T08:40:33;99023.78;;;12.39;100.00
30598;BME280;17365;48.878;8.334;2023-10-31T08:42:58;99023.53;;;12.50;100.00
30598;BME280;17365;48.878;8.334;2023-10-31T08:45:23;99030.84;;;12.71;100.00
30598;BME280;17365;48.878;8.334;2023-10-31T08:47:48;99023.81;;;12.75;100.00
30598;BME280;17365;48.878;8.334;2023-10-31T08:50:15;99025.13;;;12.57;100.00
30598;BME280;17365;48.878;8.334;2023-10-31T08:52:40;99033.31;;;12.76;100.00
30598;BME280;17365;48.878;8.334;2023-10-31T08:55:05;99032.03;;;12.57;100.00
30598;BME280;17365;48.878;8.334;2023-10-31T08:57:31;99031.59;;;12.75;100.00
30598;BME280;17365;48.878;8.334;2023-10-31T08:59:56;99032.38;;;12.78;100.00
30598;BME280;17365;48.878;8.334;2023-10-31T09:02:21;99032.06;;;12.91;100.00
30598;BME280;17365;48.878;8.334;2023-10-31T09:04:47;99028.59;;;12.92;100.00
30598;BME280;17365;48.878;8.334;2023-10-31T09:07:12;99025.56;;;12.74;100.00
30598;BME280;17365;48.878;8.334;2023-10-31T09:09:37;99036.03;;;12.71;100.00
30598;BME280;17365;48.878;8.334;2023-10-31T09:12:02;99039.84;;;12.58;100.00
30598;BME280;17365;48.878;8.334;2023-10-31T09:14:28;99041.59;;;12.58;100.00
30598;BME280;17365;48.878;8.334;2023-10-31T09:16:53;99039.59;;;12.67;100.00
30598;BME280;17365;48.878;8.334;2023-10-31T09:19:18;99045.47;;;12.38;100.00
30598;BME280;17365;48.878;8.334;2023-10-31T09:21:44;99040.28;;;12.38;100.00
30598;BME280;17365;48.878;8.334;2023-10-31T09:24:09;99038.22;;;12.52;100.00
30598;BME280;17365;48.878;8.334;2023-10-31T09:26:35;99043.63;;;12.43;100.00
30598;BME280;17365;48.878;8.334;2023-10-31T09:29:00;99053.88;;;12.51;100.00
30598;BME280;17365;48.878;8.334;2023-10-31T09:31:25;99046.22;;;12.43;100.00
30598;BME280;17365;48.878;8.334;2023-10-31T09:33:50;99052.19;;;12.48;100.00
30598;BME280;17365;48.878;8.334;2023-10-31T09:36:16;99050.25;;;12.58;100.00
30598;BME280;17365;48.878;8.334;2023-10-31T09:38:41;99044.50;;;12.42;100.00
30598;BME280;17365;48.878;8.334;2023-10-31T09:41:06;99045.84;;;12.60;100.00
30598;BME280;17365;48.878;8.334;2023-10-31T09:43:31;99055.56;;;12.52;100.00
30598;BME280;17365;48.878;8.334;2023-10-31T09:45:57;99049.13;;;12.67;100.00
30598;BME280;17365;48.878;8.334;2023-10-31T09:48:22;99049.13;;;12.67;100.00
30598;BME280;17365;48.878;8.334;2023-10-31T09:50:47;99055.75;;;12.81;100.00
30598;BME280;17365;48.878;8.334;2023-10-31T09:53:17;99057.81;;;12.67;100.00
30598;BME280;17365;48.878;8.334;2023-10-31T09:55:42;99053.97;;;12.83;100.00
30598;BME280;17365;48.878;8.334;2023-10-31T09:58:07;99055.41;;;12.60;100.00
30598;BME280;17365;48.878;8.334;2023-10-31T10:00:33;99053.97;;;12.83;100.00
30598;BME280;17365;48.878;8.334;2023-10-31T10:02:58;99053.47;;;13.03;100.00
30598;BME280;17365;48.878;8.334;2023-10-31T10:05:24;99052.22;;;13.18;100.00
30598;BME280;17365;48.878;8.334;2023-10-31T10:07:50;99060.16;;;13.12;100.00
30598;BME280;17365;48.878;8.334;2023-10-31T10:10:15;99054.56;;;12.95;100.00
30598;BME280;17365;48.878;8.334;2023-10-31T10:12:41;99060.44;;;13.01;100.00
30598;BME280;17365;48.878;8.334;2023-10-31T10:15:07;99060.22;;;13.10;100.00
30598;BME280;17365;48.878;8.334;2023-10-31T10:17:32;99055.00;;;13.10;100.00
30598;BME280;17365;48.878;8.334;2023-10-31T10:20:08;99060.44;;;13.01;100.00
30598;BME280;17365;48.878;8.334;2023-10-31T10:22:40;99062.84;;;13.45;100.00
30598;BME280;17365;48.878;8.334;2023-10-31T10:25:07;99062.25;;;13.66;100.00
30598;BME280;17365;48.878;8.334;2023-10-31T10:27:32;99060.94;;;13.51;100.00
30598;BME280;17365;48.878;8.334;2023-10-31T10:29:58;99063.50;;;13.53;100.00
30598;BME280;17365;48.878;8.334;2023-10-31T10:32:23;99064.09;;;13.93;100.00
30598;BME280;17365;48.878;8.334;2023-10-31T10:34:48;99059.91;;;13.88;100.00
30598;BME280;17365;48.878;8.334;2023-10-31T10:37:13;99055.78;;;13.79;100.00
30598;BME280;17365;48.878;8.334;2023-10-31T10:39:39;99054.00;;;13.81;100.00
30598;BME280;17365;48.878;8.334;2023-10-31T10:42:05;99057.50;;;13.82;100.00
30598;BME280;17365;48.878;8.334;2023-10-31T10:44:33;99051.63;;;14.03;100.00
30598;BME280;17365;48.878;8.334;2023-10-31T10:46:58;99052.00;;;13.91;100.00
30598;BME280;17365;48.878;8.334;2023-10-31T10:49:26;99056.06;;;13.70;100.00
30598;BME280;17365;48.878;8.334;2023-10-31T10:51:53;99048.63;;;13.56;100.00
30598;BME280;17365;48.878;8.334;2023-10-31T10:54:25;99048.47;;;13.93;100.00
30598;BME280;17365;48.878;8.334;2023-10-31T10:56:58;99042.56;;;13.87;100.00
30598;BME280;17365;48.878;8.334;2023-10-31T10:59:30;99053.78;;;13.89;100.00
30598;BME280;17365;48.878;8.334;2023-10-31T11:01:57;99050.06;;;13.97;100.00
30598;BME280;17365;48.878;8.334;2023-10-31T11:04:23;99047.91;;;14.12;100.00
30598;BME280;17365;48.878;8.334;2023-10-31T11:06:48;99046.25;;;14.39;100.00
30598;BME280;17365;48.878;8.334;2023-10-31T11:09:14;99045.59;;;14.31;100.00
30598;BME280;17365;48.878;8.334;2023-10-31T11:11:40;99040.84;;;14.15;100.00
30598;BME280;17365;48.878;8.334;2023-10-31T11:14:06;99045.66;;;14.29;100.00
30598;BME280;17365;48.878;8.334;2023-10-31T11:16:38;99036.81;;;14.05;100.00
30598;BME280;17365;48.878;8.334;2023-10-31T11:19:06;99039.34;;;14.36;100.00
30598;BME280;17365;48.878;8.334;2023-10-31T11:21:31;99041.84;;;14.11;100.00
30598;BME280;17365;48.878;8.334;2023-10-31T11:23:59;99049.00;;;14.05;100.00
30598;BME280;17365;48.878;8.334;2023-10-31T11:26:25;99047.25;;;14.33;100.00
30598;BME280;17365;48.878;8.334;2023-10-31T11:28:51;99040.50;;;14.55;100.00
30598;BME280;17365;48.878;8.334;2023-10-31T11:31:16;99047.88;;;13.84;100.00
30598;BME280;17365;48.878;8.334;2023-10-31T11:33:41;99041.88;;;13.80;100.00
30598;BME280;17365;48.878;8.334;2023-10-31T11:36:08;99050.06;;;13.97;100.00
30598;BME280;17365;48.878;8.334;2023-10-31T11:38:35;99049.06;;;14.02;100.00
30598;BME280;17365;48.878;8.334;2023-10-31T11:41:01;99057.00;;;13.98;100.00
30598;BME280;17365;48.878;8.334;2023-10-31T11:43:49;99070.59;;;13.79;100.00
30598;BME280;17365;48.878;8.334;2023-10-31T11:46:22;99072.03;;;13.89;100.00
30598;BME280;17365;48.878;8.334;2023-10-31T11:48:50;99077.19;;;13.61;100.00
30598;BME280;17365;48.878;8.334;2023-10-31T11:51:19;99066.38;;;13.42;100.00
30598;BME280;17365;48.878;8.334;2023-10-31T11:53:45;99082.78;;;13.46;100.00
30598;BME280;17365;48.878;8.334;2023-10-31T11:56:10;99073.91;;;13.53;100.00
30598;BME280;17365;48.878;8.334;2023-10-31T11:58:36;99081.16;;;13.42;100.00
30598;BME280;17365;48.878;8.334;2023-10-31T12:01:05;99084.44;;;13.50;100.00
30598;BME280;17365;48.878;8.334;2023-10-31T12:03:43;99078.91;;;13.28;100.00
30598;BME280;17365;48.878;8.334;2023-10-31T12:06:12;99081.25;;;13.38;100.00
30598;BME280;17365;48.878;8.334;2023-10-31T12:08:38;99084.75;;;13.68;100.00
30598;BME280;17365;48.878;8.334;2023-10-31T12:11:08;99083.47;;;13.85;100.00
30598;BME280;17365;48.878;8.334;2023-10-31T12:13:34;99077.69;;;14.05;100.00
30598;BME280;17365;48.878;8.334;2023-10-31T12:16:00;99082.56;;;14.17;100.00
30598;BME280;17365;48.878;8.334;2023-10-31T12:18:26;99086.75;;;13.91;100.00
30598;BME280;17365;48.878;8.334;2023-10-31T12:20:51;99087.56;;;14.23;100.00
30598;BME280;17365;48.878;8.334;2023-10-31T12:23:17;99092.03;;;13.88;100.00
30598;BME280;17365;48.878;8.334;2023-10-31T12:25:49;99094.41;;;13.97;100.00
30598;BME280;17365;48.878;8.334;2023-10-31T12:28:18;99097.16;;;13.91;100.00
30598;BME280;17365;48.878;8.334;2023-10-31T12:30:44;99095.66;;;13.84;100.00
30598;BME280;17365;48.878;8.334;2023-10-31T12:33:09;99099.56;;;13.68;100.00
30598;BME280;17365;48.878;8.334;2023-10-31T12:35:34;99100.84;;;13.84;100.00
30598;BME280;17365;48.878;8.334;2023-10-31T12:38:00;99088.69;;;13.52;100.00
30598;BME280;17365;48.878;8.334;2023-10-31T12:40:25;99091.25;;;13.54;100.00
30598;BME280;17365;48.878;8.334;2023-10-31T12:42:51;99099.84;;;13.57;100.00